Terminal Aerodrome Forecast
Issued by NWS

Home | Current Version | Previous Version | Text Only | Print | Product List | Glossary On
Versions: 1 2 3 4 5 6 7 8 9 10 11 12 13 14 15
000
FTUS41 KCAR 292340
TAFHUL
TAF
KHUL 292340Z 3000/3024 22004KT P6SM SCT120 BKN220
     FM301200 18008KT P6SM BKN080 OVC150
     FM301600 18012G20KT P6SM OVC050
     FM301700 18014G23KT 6SM -SHRA OVC030
     FM301900 18014G23KT 4SM -SHRA OVC018
     FM302100 18012G20KT 3SM -SHRA OVC012=

USA.gov is the U.S. government's official web portal to all federal, state and local government web resources and services.